sensor_id;sensor_type;location;lat;lon;timestamp;P1;durP1;ratioP1;P2;durP2;ratioP2
22648;SDS011;11491;41.942;24.220;2023-01-16T00:01:41;78.38;;;19.88;;
22648;SDS011;11491;41.942;24.220;2023-01-16T00:04:08;129.07;;;22.50;;
22648;SDS011;11491;41.942;24.220;2023-01-16T00:06:34;265.27;;;51.30;;
22648;SDS011;11491;41.942;24.220;2023-01-16T00:09:02;153.60;;;38.55;;
22648;SDS011;11491;41.942;24.220;2023-01-16T00:11:29;109.80;;;27.45;;
22648;SDS011;11491;41.942;24.220;2023-01-16T00:13:56;113.20;;;27.25;;
22648;SDS011;11491;41.942;24.220;2023-01-16T00:16:25;234.80;;;51.50;;
22648;SDS011;11491;41.942;24.220;2023-01-16T00:18:52;133.18;;;42.85;;
22648;SDS011;11491;41.942;24.220;2023-01-16T00:21:19;104.80;;;27.17;;
22648;SDS011;11491;41.942;24.220;2023-01-16T00:23:45;108.05;;;26.75;;
22648;SDS011;11491;41.942;24.220;2023-01-16T00:26:13;131.65;;;33.65;;
22648;SDS011;11491;41.942;24.220;2023-01-16T00:28:39;103.03;;;27.35;;
22648;SDS011;11491;41.942;24.220;2023-01-16T00:31:06;59.33;;;21.88;;
22648;SDS011;11491;41.942;24.220;2023-01-16T00:33:34;47.95;;;20.58;;
22648;SDS011;11491;41.942;24.220;2023-01-16T00:36:02;145.20;;;25.75;;
22648;SDS011;11491;41.942;24.220;2023-01-16T00:38:29;165.55;;;26.83;;
22648;SDS011;11491;41.942;24.220;2023-01-16T00:40:56;74.22;;;24.27;;
22648;SDS011;11491;41.942;24.220;2023-01-16T00:43:23;86.00;;;25.17;;
22648;SDS011;11491;41.942;24.220;2023-01-16T00:45:50;86.93;;;26.10;;
22648;SDS011;11491;41.942;24.220;2023-01-16T00:48:16;133.73;;;31.85;;
22648;SDS011;11491;41.942;24.220;2023-01-16T00:50:45;51.95;;;21.67;;
22648;SDS011;11491;41.942;24.220;2023-01-16T00:53:11;87.60;;;24.15;;
22648;SDS011;11491;41.942;24.220;2023-01-16T00:55:38;50.97;;;23.48;;
22648;SDS011;11491;41.942;24.220;2023-01-16T00:58:06;40.42;;;20.67;;
22648;SDS011;11491;41.942;24.220;2023-01-16T01:00:34;59.30;;;23.00;;
22648;SDS011;11491;41.942;24.220;2023-01-16T01:03:01;29.25;;;15.85;;
22648;SDS011;11491;41.942;24.220;2023-01-16T01:05:28;22.48;;;11.90;;
22648;SDS011;11491;41.942;24.220;2023-01-16T01:07:56;27.77;;;14.80;;
22648;SDS011;11491;41.942;24.220;2023-01-16T01:10:23;33.83;;;18.02;;
22648;SDS011;11491;41.942;24.220;2023-01-16T01:12:52;36.67;;;16.48;;
22648;SDS011;11491;41.942;24.220;2023-01-16T01:15:20;39.35;;;18.48;;
22648;SDS011;11491;41.942;24.220;2023-01-16T01:17:47;42.10;;;18.38;;
22648;SDS011;11491;41.942;24.220;2023-01-16T01:20:14;61.60;;;20.67;;
22648;SDS011;11491;41.942;24.220;2023-01-16T01:22:41;77.15;;;23.88;;
22648;SDS011;11491;41.942;24.220;2023-01-16T01:25:11;49.13;;;22.17;;
22648;SDS011;11491;41.942;24.220;2023-01-16T01:27:38;142.52;;;39.90;;
22648;SDS011;11491;41.942;24.220;2023-01-16T01:30:05;69.38;;;27.83;;
22648;SDS011;11491;41.942;24.220;2023-01-16T01:32:33;69.20;;;26.80;;
22648;SDS011;11491;41.942;24.220;2023-01-16T01:35:02;55.78;;;23.35;;
22648;SDS011;11491;41.942;24.220;2023-01-16T01:37:30;101.82;;;28.02;;
22648;SDS011;11491;41.942;24.220;2023-01-16T01:39:56;131.70;;;32.15;;
22648;SDS011;11491;41.942;24.220;2023-01-16T01:42:24;127.30;;;33.08;;
22648;SDS011;11491;41.942;24.220;2023-01-16T01:45:13;76.80;;;24.52;;
22648;SDS011;11491;41.942;24.220;2023-01-16T01:47:44;56.90;;;23.13;;
22648;SDS011;11491;41.942;24.220;2023-01-16T01:50:16;72.90;;;26.60;;
22648;SDS011;11491;41.942;24.220;2023-01-16T01:52:48;53.63;;;22.70;;
22648;SDS011;11491;41.942;24.220;2023-01-16T01:55:16;35.85;;;17.08;;
22648;SDS011;11491;41.942;24.220;2023-01-16T01:57:47;35.65;;;16.55;;
22648;SDS011;11491;41.942;24.220;2023-01-16T02:00:21;51.83;;;21.92;;
22648;SDS011;11491;41.942;24.220;2023-01-16T02:02:51;87.03;;;29.63;;
22648;SDS011;11491;41.942;24.220;2023-01-16T02:05:23;100.47;;;34.75;;
22648;SDS011;11491;41.942;24.220;2023-01-16T02:07:54;124.72;;;38.13;;
22648;SDS011;11491;41.942;24.220;2023-01-16T02:10:27;90.25;;;34.25;;
22648;SDS011;11491;41.942;24.220;2023-01-16T02:13:00;65.65;;;23.50;;
22648;SDS011;11491;41.942;24.220;2023-01-16T02:15:27;39.42;;;16.85;;
22648;SDS011;11491;41.942;24.220;2023-01-16T02:17:55;42.60;;;18.52;;
22648;SDS011;11491;41.942;24.220;2023-01-16T02:20:43;36.30;;;15.70;;
22648;SDS011;11491;41.942;24.220;2023-01-16T02:23:30;70.65;;;24.08;;
22648;SDS011;11491;41.942;24.220;2023-01-16T02:29:38;51.28;;;19.33;;
22648;SDS011;11491;41.942;24.220;2023-01-16T02:32:32;56.60;;;24.15;;
22648;SDS011;11491;41.942;24.220;2023-01-16T02:35:21;59.80;;;25.45;;
22648;SDS011;11491;41.942;24.220;2023-01-16T02:38:13;73.45;;;30.77;;
22648;SDS011;11491;41.942;24.220;2023-01-16T02:40:48;118.68;;;38.00;;
22648;SDS011;11491;41.942;24.220;2023-01-16T02:43:25;108.75;;;37.42;;
22648;SDS011;11491;41.942;24.220;2023-01-16T02:45:59;27.35;;;14.50;;
22648;SDS011;11491;41.942;24.220;2023-01-16T02:48:36;47.47;;;22.35;;
22648;SDS011;11491;41.942;24.220;2023-01-16T02:51:10;35.40;;;16.75;;
22648;SDS011;11491;41.942;24.220;2023-01-16T02:56:11;40.58;;;18.77;;
22648;SDS011;11491;41.942;24.220;2023-01-16T02:58:41;138.10;;;49.40;;
22648;SDS011;11491;41.942;24.220;2023-01-16T03:01:09;163.32;;;55.85;;
22648;SDS011;11491;41.942;24.220;2023-01-16T03:03:40;72.72;;;31.85;;
22648;SDS011;11491;41.942;24.220;2023-01-16T03:06:28;58.92;;;27.98;;
22648;SDS011;11491;41.942;24.220;2023-01-16T03:09:07;70.10;;;30.30;;
22648;SDS011;11491;41.942;24.220;2023-01-16T03:11:52;187.63;;;66.85;;
22648;SDS011;11491;41.942;24.220;2023-01-16T03:14:33;207.25;;;76.70;;
22648;SDS011;11491;41.942;24.220;2023-01-16T03:17:07;93.47;;;37.80;;
22648;SDS011;11491;41.942;24.220;2023-01-16T03:19:45;79.97;;;32.72;;
22648;SDS011;11491;41.942;24.220;2023-01-16T03:22:29;53.85;;;24.50;;
22648;SDS011;11491;41.942;24.220;2023-01-16T03:25:13;69.68;;;25.23;;
22648;SDS011;11491;41.942;24.220;2023-01-16T03:27:53;30.42;;;14.65;;
22648;SDS011;11491;41.942;24.220;2023-01-16T03:30:28;38.70;;;16.27;;
22648;SDS011;11491;41.942;24.220;2023-01-16T03:33:02;68.70;;;23.13;;
22648;SDS011;11491;41.942;24.220;2023-01-16T03:35:36;32.67;;;15.85;;
22648;SDS011;11491;41.942;24.220;2023-01-16T03:38:08;48.58;;;20.55;;
22648;SDS011;11491;41.942;24.220;2023-01-16T03:40:41;34.92;;;17.38;;
22648;SDS011;11491;41.942;24.220;2023-01-16T03:43:11;22.77;;;13.77;;
22648;SDS011;11491;41.942;24.220;2023-01-16T03:45:42;25.33;;;14.45;;
22648;SDS011;11491;41.942;24.220;2023-01-16T03:48:13;17.35;;;10.65;;
22648;SDS011;11491;41.942;24.220;2023-01-16T03:50:47;15.88;;;10.75;;
22648;SDS011;11491;41.942;24.220;2023-01-16T03:53:18;12.73;;;8.43;;
22648;SDS011;11491;41.942;24.220;2023-01-16T03:55:53;33.10;;;18.58;;
22648;SDS011;11491;41.942;24.220;2023-01-16T03:58:28;45.30;;;26.02;;
22648;SDS011;11491;41.942;24.220;2023-01-16T04:00:59;36.17;;;20.52;;
22648;SDS011;11491;41.942;24.220;2023-01-16T04:03:37;31.05;;;17.65;;
22648;SDS011;11491;41.942;24.220;2023-01-16T04:06:11;43.42;;;22.58;;
22648;SDS011;11491;41.942;24.220;2023-01-16T04:08:43;55.67;;;28.92;;
22648;SDS011;11491;41.942;24.220;2023-01-16T04:11:13;82.47;;;33.10;;
22648;SDS011;11491;41.942;24.220;2023-01-16T04:13:42;42.97;;;21.55;;
22648;SDS011;11491;41.942;24.220;2023-01-16T04:16:12;44.97;;;24.20;;
22648;SDS011;11491;41.942;24.220;2023-01-16T04:18:43;38.80;;;23.23;;
22648;SDS011;11491;41.942;24.220;2023-01-16T04:21:12;54.70;;;29.90;;
22648;SDS011;11491;41.942;24.220;2023-01-16T04:23:39;60.30;;;32.10;;
22648;SDS011;11491;41.942;24.220;2023-01-16T04:26:06;55.67;;;27.98;;
22648;SDS011;11491;41.942;24.220;2023-01-16T04:28:33;49.90;;;27.60;;
22648;SDS011;11491;41.942;24.220;2023-01-16T04:31:00;44.85;;;25.90;;
22648;SDS011;11491;41.942;24.220;2023-01-16T04:33:27;41.85;;;25.23;;
22648;SDS011;11491;41.942;24.220;2023-01-16T04:35:53;42.25;;;27.25;;
22648;SDS011;11491;41.942;24.220;2023-01-16T04:38:21;53.97;;;32.78;;
22648;SDS011;11491;41.942;24.220;2023-01-16T04:40:48;29.90;;;19.65;;
22648;SDS011;11491;41.942;24.220;2023-01-16T04:43:18;40.10;;;23.05;;
22648;SDS011;11491;41.942;24.220;2023-01-16T04:45:45;49.20;;;28.40;;
22648;SDS011;11491;41.942;24.220;2023-01-16T04:48:12;68.78;;;42.42;;
22648;SDS011;11491;41.942;24.220;2023-01-16T04:50:39;58.40;;;35.90;;
22648;SDS011;11491;41.942;24.220;2023-01-16T04:53:06;60.85;;;35.30;;
22648;SDS011;11491;41.942;24.220;2023-01-16T04:55:34;116.53;;;55.95;;
22648;SDS011;11491;41.942;24.220;2023-01-16T04:58:01;119.32;;;56.90;;
22648;SDS011;11491;41.942;24.220;2023-01-16T05:00:27;67.82;;;37.88;;
22648;SDS011;11491;41.942;24.220;2023-01-16T05:02:54;65.63;;;37.50;;
22648;SDS011;11491;41.942;24.220;2023-01-16T05:05:21;78.43;;;41.25;;
22648;SDS011;11491;41.942;24.220;2023-01-16T05:07:48;66.40;;;35.08;;
22648;SDS011;11491;41.942;24.220;2023-01-16T05:10:37;63.53;;;31.70;;
22648;SDS011;11491;41.942;24.220;2023-01-16T05:13:03;59.30;;;30.23;;
22648;SDS011;11491;41.942;24.220;2023-01-16T05:15:30;56.97;;;27.25;;
22648;SDS011;11491;41.942;24.220;2023-01-16T05:17:57;64.45;;;34.50;;
22648;SDS011;11491;41.942;24.220;2023-01-16T05:20:24;72.05;;;39.20;;
22648;SDS011;11491;41.942;24.220;2023-01-16T05:22:50;63.10;;;33.40;;
22648;SDS011;11491;41.942;24.220;2023-01-16T05:25:17;62.13;;;33.58;;
22648;SDS011;11491;41.942;24.220;2023-01-16T05:27:49;85.72;;;47.40;;
22648;SDS011;11491;41.942;24.220;2023-01-16T05:30:17;106.95;;;54.70;;
22648;SDS011;11491;41.942;24.220;2023-01-16T05:32:43;123.53;;;62.65;;
22648;SDS011;11491;41.942;24.220;2023-01-16T05:35:10;119.72;;;60.55;;
22648;SDS011;11491;41.942;24.220;2023-01-16T05:37:37;121.37;;;55.67;;
22648;SDS011;11491;41.942;24.220;2023-01-16T05:40:04;114.13;;;55.20;;
22648;SDS011;11491;41.942;24.220;2023-01-16T05:42:31;124.30;;;64.35;;
22648;SDS011;11491;41.942;24.220;2023-01-16T05:45:00;130.45;;;75.60;;
22648;SDS011;11491;41.942;24.220;2023-01-16T05:47:26;112.07;;;64.63;;
22648;SDS011;11491;41.942;24.220;2023-01-16T05:49:53;109.35;;;58.88;;
22648;SDS011;11491;41.942;24.220;2023-01-16T05:52:23;138.82;;;75.97;;
22648;SDS011;11491;41.942;24.220;2023-01-16T05:54:50;162.23;;;93.40;;
22648;SDS011;11491;41.942;24.220;2023-01-16T05:57:16;170.38;;;96.22;;
22648;SDS011;11491;41.942;24.220;2023-01-16T05:59:43;145.52;;;83.40;;
22648;SDS011;11491;41.942;24.220;2023-01-16T06:02:14;141.45;;;84.65;;
22648;SDS011;11491;41.942;24.220;2023-01-16T06:04:41;113.93;;;64.13;;
22648;SDS011;11491;41.942;24.220;2023-01-16T06:07:08;109.57;;;61.05;;
22648;SDS011;11491;41.942;24.220;2023-01-16T06:09:34;105.22;;;59.10;;
22648;SDS011;11491;41.942;24.220;2023-01-16T06:12:01;105.05;;;54.35;;
22648;SDS011;11491;41.942;24.220;2023-01-16T06:14:28;149.80;;;68.75;;
22648;SDS011;11491;41.942;24.220;2023-01-16T06:16:55;136.82;;;69.75;;
22648;SDS011;11491;41.942;24.220;2023-01-16T06:19:23;118.47;;;64.20;;
22648;SDS011;11491;41.942;24.220;2023-01-16T06:21:49;111.97;;;60.75;;
22648;SDS011;11491;41.942;24.220;2023-01-16T06:24:16;122.97;;;66.65;;
22648;SDS011;11491;41.942;24.220;2023-01-16T06:26:43;131.93;;;68.72;;
22648;SDS011;11491;41.942;24.220;2023-01-16T06:29:10;98.57;;;56.58;;
22648;SDS011;11491;41.942;24.220;2023-01-16T06:31:37;62.83;;;36.97;;
22648;SDS011;11491;41.942;24.220;2023-01-16T06:34:03;49.47;;;33.47;;
22648;SDS011;11491;41.942;24.220;2023-01-16T06:36:31;41.78;;;27.27;;
22648;SDS011;11491;41.942;24.220;2023-01-16T06:38:58;130.80;;;81.20;;
22648;SDS011;11491;41.942;24.220;2023-01-16T06:41:25;168.77;;;100.00;;
22648;SDS011;11491;41.942;24.220;2023-01-16T06:43:52;176.77;;;112.57;;
22648;SDS011;11491;41.942;24.220;2023-01-16T06:46:18;142.13;;;84.90;;
22648;SDS011;11491;41.942;24.220;2023-01-16T06:48:45;106.97;;;66.20;;
22648;SDS011;11491;41.942;24.220;2023-01-16T06:51:12;100.18;;;55.38;;
22648;SDS011;11491;41.942;24.220;2023-01-16T06:53:40;97.18;;;57.35;;
22648;SDS011;11491;41.942;24.220;2023-01-16T06:56:07;111.35;;;60.67;;
22648;SDS011;11491;41.942;24.220;2023-01-16T06:58:34;111.35;;;60.38;;
22648;SDS011;11491;41.942;24.220;2023-01-16T07:01:00;64.95;;;37.17;;
22648;SDS011;11491;41.942;24.220;2023-01-16T07:03:27;72.32;;;37.05;;
22648;SDS011;11491;41.942;24.220;2023-01-16T07:05:54;92.85;;;54.08;;
22648;SDS011;11491;41.942;24.220;2023-01-16T07:08:20;94.80;;;56.83;;
22648;SDS011;11491;41.942;24.220;2023-01-16T07:10:49;90.72;;;50.97;;
22648;SDS011;11491;41.942;24.220;2023-01-16T07:13:15;69.72;;;42.45;;
22648;SDS011;11491;41.942;24.220;2023-01-16T07:15:45;69.80;;;43.42;;
22648;SDS011;11491;41.942;24.220;2023-01-16T07:18:31;58.03;;;32.85;;
22648;SDS011;11491;41.942;24.220;2023-01-16T07:21:30;77.47;;;46.00;;
22648;SDS011;11491;41.942;24.220;2023-01-16T07:24:16;69.25;;;37.60;;
22648;SDS011;11491;41.942;24.220;2023-01-16T07:26:47;47.55;;;28.80;;
22648;SDS011;11491;41.942;24.220;2023-01-16T07:29:17;41.28;;;24.85;;
22648;SDS011;11491;41.942;24.220;2023-01-16T07:31:44;66.68;;;42.63;;
22648;SDS011;11491;41.942;24.220;2023-01-16T07:34:11;89.60;;;51.65;;
22648;SDS011;11491;41.942;24.220;2023-01-16T07:36:37;97.18;;;55.55;;
22648;SDS011;11491;41.942;24.220;2023-01-16T07:39:04;100.88;;;58.38;;
22648;SDS011;11491;41.942;24.220;2023-01-16T07:41:31;95.00;;;52.45;;
22648;SDS011;11491;41.942;24.220;2023-01-16T07:43:59;91.03;;;54.53;;
22648;SDS011;11491;41.942;24.220;2023-01-16T07:46:26;54.47;;;33.13;;
22648;SDS011;11491;41.942;24.220;2023-01-16T07:48:52;45.25;;;28.38;;
22648;SDS011;11491;41.942;24.220;2023-01-16T07:51:21;39.17;;;24.77;;
22648;SDS011;11491;41.942;24.220;2023-01-16T07:53:48;33.70;;;21.52;;
22648;SDS011;11491;41.942;24.220;2023-01-16T07:56:15;18.98;;;13.75;;
22648;SDS011;11491;41.942;24.220;2023-01-16T07:58:42;22.67;;;15.52;;
22648;SDS011;11491;41.942;24.220;2023-01-16T08:01:10;32.67;;;20.52;;
22648;SDS011;11491;41.942;24.220;2023-01-16T08:03:37;10.82;;;8.27;;
22648;SDS011;11491;41.942;24.220;2023-01-16T08:06:04;14.50;;;10.77;;
22648;SDS011;11491;41.942;24.220;2023-01-16T08:08:31;14.45;;;10.25;;
22648;SDS011;11491;41.942;24.220;2023-01-16T08:10:59;17.95;;;14.18;;
22648;SDS011;11491;41.942;24.220;2023-01-16T08:13:49;23.95;;;14.50;;
22648;SDS011;11491;41.942;24.220;2023-01-16T08:16:17;14.15;;;9.32;;
22648;SDS011;11491;41.942;24.220;2023-01-16T08:18:44;10.05;;;7.15;;
22648;SDS011;11491;41.942;24.220;2023-01-16T08:21:13;9.55;;;6.13;;
22648;SDS011;11491;41.942;24.220;2023-01-16T08:23:41;11.63;;;6.60;;
22648;SDS011;11491;41.942;24.220;2023-01-16T08:26:08;11.85;;;8.15;;
22648;SDS011;11491;41.942;24.220;2023-01-16T08:28:35;67.50;;;33.58;;
22648;SDS011;11491;41.942;24.220;2023-01-16T08:31:05;43.97;;;19.85;;
22648;SDS011;11491;41.942;24.220;2023-01-16T08:33:35;26.58;;;12.43;;
22648;SDS011;11491;41.942;24.220;2023-01-16T08:36:02;11.85;;;7.57;;
22648;SDS011;11491;41.942;24.220;2023-01-16T08:38:30;23.75;;;9.98;;
22648;SDS011;11491;41.942;24.220;2023-01-16T08:40:57;17.15;;;10.02;;
22648;SDS011;11491;41.942;24.220;2023-01-16T08:43:24;16.02;;;7.82;;
22648;SDS011;11491;41.942;24.220;2023-01-16T08:46:12;18.15;;;9.85;;
22648;SDS011;11491;41.942;24.220;2023-01-16T08:49:02;15.43;;;8.95;;
22648;SDS011;11491;41.942;24.220;2023-01-16T08:51:47;43.15;;;21.35;;
22648;SDS011;11491;41.942;24.220;2023-01-16T08:54:14;13.20;;;8.68;;
22648;SDS011;11491;41.942;24.220;2023-01-16T08:56:41;10.20;;;7.40;;
22648;SDS011;11491;41.942;24.220;2023-01-16T08:59:08;12.07;;;8.88;;
22648;SDS011;11491;41.942;24.220;2023-01-16T09:01:36;7.60;;;5.50;;
22648;SDS011;11491;41.942;24.220;2023-01-16T09:04:05;9.95;;;6.55;;
22648;SDS011;11491;41.942;24.220;2023-01-16T09:06:32;25.17;;;16.63;;
22648;SDS011;11491;41.942;24.220;2023-01-16T09:09:01;15.35;;;10.85;;
22648;SDS011;11491;41.942;24.220;2023-01-16T09:11:29;15.35;;;8.90;;
22648;SDS011;11491;41.942;24.220;2023-01-16T09:14:28;13.88;;;9.65;;
22648;SDS011;11491;41.942;24.220;2023-01-16T09:16:54;10.75;;;7.82;;
22648;SDS011;11491;41.942;24.220;2023-01-16T09:19:22;30.02;;;17.35;;
22648;SDS011;11491;41.942;24.220;2023-01-16T09:21:49;9.82;;;6.88;;
22648;SDS011;11491;41.942;24.220;2023-01-16T09:24:16;11.68;;;7.57;;
22648;SDS011;11491;41.942;24.220;2023-01-16T09:26:42;7.43;;;5.32;;
22648;SDS011;11491;41.942;24.220;2023-01-16T09:29:09;12.27;;;7.07;;
22648;SDS011;11491;41.942;24.220;2023-01-16T09:31:36;16.17;;;10.13;;
22648;SDS011;11491;41.942;24.220;2023-01-16T09:34:03;11.77;;;7.00;;
22648;SDS011;11491;41.942;24.220;2023-01-16T09:36:31;17.67;;;11.30;;
22648;SDS011;11491;41.942;24.220;2023-01-16T09:38:58;15.05;;;9.70;;
22648;SDS011;11491;41.942;24.220;2023-01-16T09:41:24;29.50;;;17.02;;
22648;SDS011;11491;41.942;24.220;2023-01-16T09:44:11;13.40;;;8.10;;
22648;SDS011;11491;41.942;24.220;2023-01-16T09:46:42;23.10;;;11.32;;
22648;SDS011;11491;41.942;24.220;2023-01-16T09:49:16;10.70;;;7.00;;
22648;SDS011;11491;41.942;24.220;2023-01-16T09:51:51;14.45;;;10.60;;
22648;SDS011;11491;41.942;24.220;2023-01-16T09:54:39;8.27;;;6.45;;
22648;SDS011;11491;41.942;24.220;2023-01-16T09:57:36;19.23;;;12.52;;
22648;SDS011;11491;41.942;24.220;2023-01-16T10:00:22;14.48;;;9.07;;
22648;SDS011;11491;41.942;24.220;2023-01-16T10:02:52;14.75;;;8.85;;
22648;SDS011;11491;41.942;24.220;2023-01-16T10:05:19;14.18;;;8.57;;
22648;SDS011;11491;41.942;24.220;2023-01-16T10:07:53;7.82;;;5.78;;
22648;SDS011;11491;41.942;24.220;2023-01-16T10:16:31;13.48;;;8.52;;
22648;SDS011;11491;41.942;24.220;2023-01-16T10:19:10;18.70;;;10.82;;
22648;SDS011;11491;41.942;24.220;2023-01-16T10:24:42;23.13;;;15.93;;
22648;SDS011;11491;41.942;24.220;2023-01-16T10:27:18;14.77;;;9.48;;
22648;SDS011;11491;41.942;24.220;2023-01-16T10:29:53;11.32;;;7.78;;
22648;SDS011;11491;41.942;24.220;2023-01-16T10:32:24;16.00;;;8.85;;
22648;SDS011;11491;41.942;24.220;2023-01-16T10:34:55;15.20;;;9.43;;
22648;SDS011;11491;41.942;24.220;2023-01-16T10:37:28;9.75;;;6.80;;
22648;SDS011;11491;41.942;24.220;2023-01-16T10:39:57;10.48;;;6.38;;
22648;SDS011;11491;41.942;24.220;2023-01-16T10:42:27;7.78;;;5.53;;
22648;SDS011;11491;41.942;24.220;2023-01-16T10:45:17;8.93;;;6.03;;
22648;SDS011;11491;41.942;24.220;2023-01-16T10:48:07;11.35;;;6.90;;
22648;SDS011;11491;41.942;24.220;2023-01-16T10:50:55;9.75;;;6.38;;
22648;SDS011;11491;41.942;24.220;2023-01-16T10:53:22;9.25;;;5.80;;
22648;SDS011;11491;41.942;24.220;2023-01-16T10:55:50;6.97;;;5.22;;
22648;SDS011;11491;41.942;24.220;2023-01-16T10:58:28;14.32;;;7.18;;
22648;SDS011;11491;41.942;24.220;2023-01-16T11:00:58;13.70;;;8.05;;
22648;SDS011;11491;41.942;24.220;2023-01-16T11:03:32;7.63;;;5.25;;
22648;SDS011;11491;41.942;24.220;2023-01-16T11:06:08;7.53;;;5.25;;
22648;SDS011;11491;41.942;24.220;2023-01-16T11:08:38;6.28;;;4.63;;
22648;SDS011;11491;41.942;24.220;2023-01-16T11:11:07;16.85;;;9.48;;
22648;SDS011;11491;41.942;24.220;2023-01-16T11:13:57;7.43;;;5.28;;
22648;SDS011;11491;41.942;24.220;2023-01-16T11:16:42;7.25;;;5.13;;
22648;SDS011;11491;41.942;24.220;2023-01-16T11:19:26;19.02;;;11.68;;
22648;SDS011;11491;41.942;24.220;2023-01-16T11:21:56;18.88;;;11.80;;
22648;SDS011;11491;41.942;24.220;2023-01-16T11:24:29;7.78;;;5.55;;
22648;SDS011;11491;41.942;24.220;2023-01-16T11:26:59;10.65;;;6.20;;
22648;SDS011;11491;41.942;24.220;2023-01-16T11:29:28;20.58;;;14.18;;
22648;SDS011;11491;41.942;24.220;2023-01-16T11:32:03;28.00;;;16.67;;
22648;SDS011;11491;41.942;24.220;2023-01-16T11:34:32;10.88;;;8.30;;
22648;SDS011;11491;41.942;24.220;2023-01-16T11:37:00;14.02;;;12.05;;
22648;SDS011;11491;41.942;24.220;2023-01-16T11:39:29;11.45;;;8.88;;
22648;SDS011;11491;41.942;24.220;2023-01-16T11:42:02;17.05;;;11.93;;
22648;SDS011;11491;41.942;24.220;2023-01-16T11:44:55;21.50;;;14.85;;
22648;SDS011;11491;41.942;24.220;2023-01-16T11:47:50;10.82;;;6.70;;
22648;SDS011;11491;41.942;24.220;2023-01-16T11:50:26;9.15;;;6.68;;
22648;SDS011;11491;41.942;24.220;2023-01-16T11:52:54;9.20;;;6.60;;
22648;SDS011;11491;41.942;24.220;2023-01-16T11:55:20;8.73;;;6.53;;
22648;SDS011;11491;41.942;24.220;2023-01-16T11:57:57;13.95;;;7.68;;
22648;SDS011;11491;41.942;24.220;2023-01-16T12:00:37;15.57;;;10.25;;
22648;SDS011;11491;41.942;24.220;2023-01-16T12:03:25;9.07;;;7.07;;
22648;SDS011;11491;41.942;24.220;2023-01-16T12:06:31;9.02;;;5.32;;
22648;SDS011;11491;41.942;24.220;2023-01-16T12:09:17;6.43;;;4.57;;
22648;SDS011;11491;41.942;24.220;2023-01-16T12:12:01;8.60;;;6.15;;
22648;SDS011;11491;41.942;24.220;2023-01-16T12:14:53;7.43;;;5.05;;
22648;SDS011;11491;41.942;24.220;2023-01-16T12:17:23;7.35;;;4.82;;
22648;SDS011;11491;41.942;24.220;2023-01-16T12:20:02;6.45;;;4.50;;
22648;SDS011;11491;41.942;24.220;2023-01-16T12:22:42;7.38;;;4.88;;
22648;SDS011;11491;41.942;24.220;2023-01-16T12:25:20;15.30;;;10.50;;
22648;SDS011;11491;41.942;24.220;2023-01-16T12:27:55;11.35;;;7.75;;
22648;SDS011;11491;41.942;24.220;2023-01-16T12:30:36;121.97;;;69.20;;
22648;SDS011;11491;41.942;24.220;2023-01-16T12:33:24;23.73;;;13.23;;
22648;SDS011;11491;41.942;24.220;2023-01-16T12:36:01;29.75;;;16.02;;
22648;SDS011;11491;41.942;24.220;2023-01-16T12:38:35;7.75;;;5.15;;
22648;SDS011;11491;41.942;24.220;2023-01-16T12:44:15;16.52;;;10.02;;
22648;SDS011;11491;41.942;24.220;2023-01-16T12:46:58;56.85;;;30.10;;
22648;SDS011;11491;41.942;24.220;2023-01-16T12:49:43;39.83;;;17.65;;
22648;SDS011;11491;41.942;24.220;2023-01-16T12:52:25;57.95;;;24.95;;
22648;SDS011;11491;41.942;24.220;2023-01-16T12:55:04;11.52;;;7.43;;
22648;SDS011;11491;41.942;24.220;2023-01-16T12:57:50;6.75;;;5.05;;
22648;SDS011;11491;41.942;24.220;2023-01-16T13:00:27;10.45;;;7.53;;
22648;SDS011;11491;41.942;24.220;2023-01-16T13:03:00;12.98;;;9.27;;
22648;SDS011;11491;41.942;24.220;2023-01-16T13:05:35;21.30;;;12.55;;
22648;SDS011;11491;41.942;24.220;2023-01-16T13:08:07;14.43;;;9.88;;
22648;SDS011;11491;41.942;24.220;2023-01-16T13:10:43;9.40;;;6.90;;
22648;SDS011;11491;41.942;24.220;2023-01-16T13:13:42;12.13;;;8.48;;
22648;SDS011;11491;41.942;24.220;2023-01-16T13:16:16;8.07;;;6.15;;
22648;SDS011;11491;41.942;24.220;2023-01-16T13:18:49;11.57;;;8.02;;
22648;SDS011;11491;41.942;24.220;2023-01-16T13:21:19;13.20;;;8.65;;
22648;SDS011;11491;41.942;24.220;2023-01-16T13:23:51;28.20;;;18.25;;
22648;SDS011;11491;41.942;24.220;2023-01-16T13:26:20;26.63;;;17.30;;
22648;SDS011;11491;41.942;24.220;2023-01-16T13:28:51;25.40;;;16.40;;
22648;SDS011;11491;41.942;24.220;2023-01-16T13:31:24;18.27;;;12.43;;
22648;SDS011;11491;41.942;24.220;2023-01-16T13:33:58;19.73;;;14.70;;
22648;SDS011;11491;41.942;24.220;2023-01-16T13:36:46;19.50;;;13.00;;
22648;SDS011;11491;41.942;24.220;2023-01-16T13:39:39;17.02;;;11.27;;
22648;SDS011;11491;41.942;24.220;2023-01-16T13:42:27;19.42;;;12.75;;
22648;SDS011;11491;41.942;24.220;2023-01-16T13:44:56;10.38;;;6.38;;
22648;SDS011;11491;41.942;24.220;2023-01-16T13:47:45;14.88;;;9.13;;
22648;SDS011;11491;41.942;24.220;2023-01-16T13:50:18;17.20;;;11.77;;
22648;SDS011;11491;41.942;24.220;2023-01-16T13:52:49;21.15;;;11.13;;
22648;SDS011;11491;41.942;24.220;2023-01-16T13:55:26;8.77;;;6.05;;
22648;SDS011;11491;41.942;24.220;2023-01-16T13:57:55;9.90;;;6.82;;
22648;SDS011;11491;41.942;24.220;2023-01-16T14:00:32;10.80;;;6.90;;
22648;SDS011;11491;41.942;24.220;2023-01-16T14:03:01;15.50;;;9.35;;
22648;SDS011;11491;41.942;24.220;2023-01-16T14:05:44;39.85;;;18.25;;
22648;SDS011;11491;41.942;24.220;2023-01-16T14:11:38;18.52;;;10.02;;
22648;SDS011;11491;41.942;24.220;2023-01-16T14:17:20;22.75;;;12.93;;
22648;SDS011;11491;41.942;24.220;2023-01-16T14:19:53;11.80;;;7.03;;
22648;SDS011;11491;41.942;24.220;2023-01-16T14:22:23;30.35;;;17.30;;
22648;SDS011;11491;41.942;24.220;2023-01-16T14:25:17;44.60;;;22.17;;
22648;SDS011;11491;41.942;24.220;2023-01-16T14:27:48;33.75;;;17.92;;
22648;SDS011;11491;41.942;24.220;2023-01-16T14:30:20;12.18;;;8.38;;
22648;SDS011;11491;41.942;24.220;2023-01-16T14:32:52;21.92;;;14.70;;
22648;SDS011;11491;41.942;24.220;2023-01-16T14:35:22;12.32;;;9.13;;
22648;SDS011;11491;41.942;24.220;2023-01-16T14:37:59;11.95;;;6.50;;
22648;SDS011;11491;41.942;24.220;2023-01-16T14:40:31;10.68;;;6.95;;
22648;SDS011;11491;41.942;24.220;2023-01-16T14:43:28;10.27;;;7.28;;
22648;SDS011;11491;41.942;24.220;2023-01-16T14:55:45;8.50;;;6.38;;
22648;SDS011;11491;41.942;24.220;2023-01-16T14:58:16;13.63;;;8.38;;
22648;SDS011;11491;41.942;24.220;2023-01-16T15:00:49;9.07;;;6.40;;
22648;SDS011;11491;41.942;24.220;2023-01-16T15:03:20;10.60;;;7.38;;
22648;SDS011;11491;41.942;24.220;2023-01-16T15:05:49;14.10;;;7.13;;
22648;SDS011;11491;41.942;24.220;2023-01-16T15:08:21;13.05;;;7.28;;
22648;SDS011;11491;41.942;24.220;2023-01-16T15:10:53;7.68;;;3.80;;
22648;SDS011;11491;41.942;24.220;2023-01-16T15:13:22;12.60;;;7.97;;
22648;SDS011;11491;41.942;24.220;2023-01-16T15:15:51;9.48;;;7.05;;